Time;durP1;ratioP1;P1;durP2;ratioP2;P2;SDS_P1;SDS_P2;PMS_P1;PMS_P2;Temp;Humidity;BMP_temperature;BMP_pressure;BME280_temperature;BME280_humidity;BME280_pressure;Samples;Min_cycle;Max_cycle;Signal;HPM_P1;HPM_P2
2022/01/19 00:01:13;;;;;;;;;;;;;;;17.23;48.41;103404.69;5067193;28;19924;-37
2022/01/19 00:03:40;;;;;;;;;;;;;;;17.22;48.43;103391.38;5064418;28;19924;-40
2022/01/19 00:06:06;;;;;;;;;;;;;;;17.21;48.14;103379.81;5066207;28;21327;-40
2022/01/19 00:08:33;;;;;;;;;;;;;;;17.19;48.32;103379.00;5063634;28;20961;-38
2022/01/19 00:10:59;;;;;;;;;;;;;;;17.20;48.62;103379.88;5066190;28;21456;-38
2022/01/19 00:13:26;;;;;;;;;;;;;;;17.19;48.09;103370.97;5063670;28;19932;-37
2022/01/19 00:15:52;;;;;;;;;;;;;;;17.18;48.63;103357.66;5066050;28;20007;-39
2022/01/19 00:18:20;;;;;;;;;;;;;;;17.17;47.92;103345.22;5062654;28;20063;-39
2022/01/19 00:20:47;;;;;;;;;;;;;;;17.17;48.49;103366.66;5068101;28;20489;-39
2022/01/19 00:23:16;;;;;;;;;;;;;;;17.15;47.95;103372.09;5065856;28;19933;-38
2022/01/19 00:25:43;;;;;;;;;;;;;;;17.14;48.53;103366.84;5066951;28;20384;-38
2022/01/19 00:28:09;;;;;;;;;;;;;;;17.13;48.56;103362.44;5065500;28;19928;-38
2022/01/19 00:30:36;;;;;;;;;;;;;;;17.13;48.23;103359.75;5069183;28;19924;-40
2022/01/19 00:33:03;;;;;;;;;;;;;;;17.11;48.32;103351.78;5072053;28;19925;-39
2022/01/19 00:35:29;;;;;;;;;;;;;;;17.10;48.67;103347.38;5071037;28;19935;-39
2022/01/19 00:37:55;;;;;;;;;;;;;;;17.09;48.32;103329.59;5065784;28;19932;-41
2022/01/19 00:40:22;;;;;;;;;;;;;;;17.08;48.16;103311.75;5072626;28;19936;-37
2022/01/19 00:42:49;;;;;;;;;;;;;;;17.08;48.64;103298.34;5068316;28;19925;-38
2022/01/19 00:45:16;;;;;;;;;;;;;;;17.08;48.16;103278.75;5069454;28;20027;-39
2022/01/19 00:47:43;;;;;;;;;;;;;;;17.06;48.00;103280.66;5067482;28;20317;-41
2022/01/19 00:50:10;;;;;;;;;;;;;;;17.05;48.43;103279.78;5068147;28;19931;-39
2022/01/19 00:52:36;;;;;;;;;;;;;;;17.03;48.64;103269.16;5070733;28;19924;-37
2022/01/19 00:55:04;;;;;;;;;;;;;;;17.01;48.23;103268.38;5069234;28;19928;-40
2022/01/19 00:57:31;;;;;;;;;;;;;;;17.02;48.67;103266.56;5067581;28;19924;-39
2022/01/19 00:59:57;;;;;;;;;;;;;;;17.01;48.13;103273.75;5070911;28;19934;-40
2022/01/19 01:02:24;;;;;;;;;;;;;;;17.00;48.57;103273.81;5068093;28;19928;-41
2022/01/19 01:04:51;;;;;;;;;;;;;;;16.98;47.74;103271.22;5066549;28;19931;-40
2022/01/19 01:07:17;;;;;;;;;;;;;;;16.97;47.85;103269.50;5065961;28;19934;-40
2022/01/19 01:09:44;;;;;;;;;;;;;;;16.97;47.44;103269.50;5067933;28;20042;-41
2022/01/19 01:12:20;;;;;;;;;;;;;;;16.95;48.20;103260.69;5070109;28;19959;-41
2022/01/19 01:20:17;;;;;;;;;;;;;;;16.93;48.13;103243.84;5065195;28;19928;-38
2022/01/19 01:22:44;;;;;;;;;;;;;;;16.92;47.87;103222.50;5070814;28;20322;-42
2022/01/19 01:25:10;;;;;;;;;;;;;;;16.91;48.48;103213.59;5064428;28;19929;-41
2022/01/19 01:27:37;;;;;;;;;;;;;;;16.91;48.18;103212.72;5068837;28;20283;-39
2022/01/19 01:30:05;;;;;;;;;;;;;;;16.89;48.30;103199.44;5068362;28;19932;-40
2022/01/19 01:32:31;;;;;;;;;;;;;;;16.88;47.59;103189.66;5070042;28;20007;-41
2022/01/19 01:34:58;;;;;;;;;;;;;;;16.87;48.37;103195.97;5071399;28;19928;-41
2022/01/19 01:37:24;;;;;;;;;;;;;;;16.86;48.03;103191.56;5065822;28;19932;-41
2022/01/19 01:39:51;;;;;;;;;;;;;;;16.85;47.79;103187.19;5064728;28;19928;-42
2022/01/19 01:42:19;;;;;;;;;;;;;;;16.84;47.73;103169.34;5069572;28;19932;-40
2022/01/19 01:44:48;;;;;;;;;;;;;;;16.85;47.85;103162.22;5062374;28;19931;-42
2022/01/19 01:47:17;;;;;;;;;;;;;;;16.84;48.58;103157.78;5069335;28;20424;-41
2022/01/19 01:54:55;;;;;;;;;;;;;;;16.82;47.59;103159.72;5068518;28;19951;-41
2022/01/19 01:57:22;;;;;;;;;;;;;;;16.80;48.36;103161.59;5067779;28;19935;-42
2022/01/19 01:59:50;;;;;;;;;;;;;;;16.81;47.86;103160.66;5065624;28;20500;-41
2022/01/19 02:02:16;;;;;;;;;;;;;;;16.80;47.89;103159.78;5067049;28;19935;-40
2022/01/19 02:04:43;;;;;;;;;;;;;;;16.80;48.48;103164.28;5064514;28;20011;-42
2022/01/19 02:09:59;;;;;;;;;;;;;;;16.77;47.72;103158.16;5065782;28;19929;-41
2022/01/19 02:23:32;;;;;;;;;;;;;;;16.73;47.36;103107.56;5065835;28;20281;-40
2022/01/19 02:26:01;;;;;;;;;;;;;;;16.73;47.89;103102.19;5070314;28;19925;-38
2022/01/19 02:42:28;;;;;;;;;;;;;;;16.68;48.21;103070.31;5064539;28;20211;-41
2022/01/19 02:49:48;;;;;;;;;;;;;;;16.68;48.28;103061.38;5067779;28;19925;-41
2022/01/19 02:52:16;;;;;;;;;;;;;;;16.66;48.06;103056.13;5066730;28;19932;-41
2022/01/19 02:54:43;;;;;;;;;;;;;;;16.65;47.91;103059.75;5063842;28;19925;-42
2022/01/19 02:57:12;;;;;;;;;;;;;;;16.66;48.01;103048.09;5069218;28;20236;-40
2022/01/19 03:11:04;;;;;;;;;;;;;;;16.63;47.72;103000.06;5059982;28;20287;-41
2022/01/19 03:13:30;;;;;;;;;;;;;;;16.62;47.56;102989.47;5065743;28;19925;-39
2022/01/19 03:15:57;;;;;;;;;;;;;;;16.62;48.53;102979.63;5068926;28;20395;-41
2022/01/19 03:18:23;;;;;;;;;;;;;;;16.61;47.91;102972.53;5066992;28;20335;-40
2022/01/19 03:20:50;;;;;;;;;;;;;;;16.60;47.36;102972.63;5066375;28;19932;-40
2022/01/19 03:23:20;;;;;;;;;;;;;;;16.61;48.03;102972.53;5065457;28;19924;-40
2022/01/19 03:25:47;;;;;;;;;;;;;;;16.60;47.18;102967.25;5063989;28;19933;-42
2022/01/19 03:28:14;;;;;;;;;;;;;;;16.59;47.98;102949.47;5067041;28;19928;-41
2022/01/19 03:30:41;;;;;;;;;;;;;;;16.59;48.45;102944.13;5065410;28;19929;-41
2022/01/19 03:33:07;;;;;;;;;;;;;;;16.57;47.58;102951.41;5065455;28;19925;-40
2022/01/19 03:35:34;;;;;;;;;;;;;;;16.58;47.58;102956.66;5069017;28;19928;-41
2022/01/19 03:38:01;;;;;;;;;;;;;;;16.56;48.07;102953.19;5061855;28;19929;-40
2022/01/19 03:40:27;;;;;;;;;;;;;;;16.57;47.61;102956.75;5067383;28;19929;-40
2022/01/19 03:42:54;;;;;;;;;;;;;;;16.57;47.36;102951.41;5066185;28;19934;-41
2022/01/19 03:45:20;;;;;;;;;;;;;;;16.56;47.85;102947.84;5061333;28;20300;-41
2022/01/19 03:47:54;;;;;;;;;;;;;;;16.55;47.34;102943.44;5066003;28;20011;-41
2022/01/19 03:50:21;;;;;;;;;;;;;;;16.56;47.56;102944.31;5063738;28;20428;-41
2022/01/19 03:52:47;;;;;;;;;;;;;;;16.56;48.23;102939.81;5064818;28;19932;-41
2022/01/19 03:55:14;;;;;;;;;;;;;;;16.55;47.93;102948.81;5067686;28;19931;-41
2022/01/19 03:57:40;;;;;;;;;;;;;;;16.54;48.00;102945.28;5064854;28;19924;-39
2022/01/19 04:00:07;;;;;;;;;;;;;;;16.54;47.38;102941.75;5066494;28;20320;-42
2022/01/19 04:02:35;;;;;;;;;;;;;;;16.52;48.38;102930.25;5068732;28;20434;-42
2022/01/19 04:05:08;;;;;;;;;;;;;;;16.52;48.03;102938.28;5066601;28;19936;-40
2022/01/19 04:07:35;;;;;;;;;;;;;;;16.52;48.00;102946.31;5065222;28;19968;-39
2022/01/19 04:10:02;;;;;;;;;;;;;;;16.50;47.32;102954.44;5066749;28;20038;-39
2022/01/19 04:12:48;;;;;;;;;;;;;;;16.50;47.16;102950.91;5064905;28;19955;-40
2022/01/19 04:15:15;;;;;;;;;;;;;;;16.51;47.28;102941.91;5067633;28;19924;-40
2022/01/19 04:17:50;;;;;;;;;;;;;;;16.50;48.00;102938.38;5065216;28;19928;-37
2022/01/19 04:20:16;;;;;;;;;;;;;;;16.49;48.12;102939.34;5062672;28;19932;-39
2022/01/19 04:22:42;;;;;;;;;;;;;;;16.49;47.46;102944.69;5065595;28;19935;-41
2022/01/19 04:25:09;;;;;;;;;;;;;;;16.48;48.43;102953.69;5065169;28;19935;-41
2022/01/19 04:27:36;;;;;;;;;;;;;;;16.48;48.40;102951.00;5066257;28;19931;-40
2022/01/19 04:30:11;;;;;;;;;;;;;;;16.48;47.20;102950.13;5067879;28;19931;-40
2022/01/19 04:32:46;;;;;;;;;;;;;;;16.48;48.11;102934.06;5063984;28;19929;-41
2022/01/19 04:35:16;;;;;;;;;;;;;;;16.48;48.53;102937.63;5067446;28;20425;-40
2022/01/19 05:01:47;;;;;;;;;;;;;;;16.46;48.03;102887.81;5061227;28;20336;-40
2022/01/19 05:06:50;;;;;;;;;;;;;;;16.43;47.73;102879.94;5064987;28;19924;-40
2022/01/19 05:14:33;;;;;;;;;;;;;;;16.40;46.54;102873.00;5063057;28;19925;-41
2022/01/19 05:17:00;;;;;;;;;;;;;;;16.41;47.31;102881.88;5071569;28;19931;-41
2022/01/19 05:19:26;;;;;;;;;;;;;;;16.40;46.59;102886.38;5066514;28;19932;-37
2022/01/19 05:21:52;;;;;;;;;;;;;;;16.39;47.67;102889.97;5067553;28;19925;-39
2022/01/19 05:24:19;;;;;;;;;;;;;;;16.39;47.02;102883.78;5070583;28;19942;-40
2022/01/19 05:26:46;;;;;;;;;;;;;;;16.38;46.51;102882.06;5068030;28;19925;-40
2022/01/19 05:29:12;;;;;;;;;;;;;;;16.38;47.29;102874.88;5066384;28;19931;-38
2022/01/19 05:31:39;;;;;;;;;;;;;;;16.38;47.48;102869.53;5066661;28;19924;-40
2022/01/19 05:34:05;;;;;;;;;;;;;;;16.39;47.49;102868.56;5066651;28;19928;-38
2022/01/19 05:36:31;;;;;;;;;;;;;;;16.39;47.48;102851.66;5069213;28;20113;-38
2022/01/19 05:39:00;;;;;;;;;;;;;;;16.39;47.44;102849.84;5066632;28;19955;-41
2022/01/19 05:41:26;;;;;;;;;;;;;;;16.38;47.04;102844.59;5050566;28;19935;-41
2022/01/19 05:43:53;;;;;;;;;;;;;;;16.39;47.03;102846.31;5068954;28;19928;-39
2022/01/19 05:46:20;;;;;;;;;;;;;;;16.39;46.48;102841.81;5063681;28;20300;-41
2022/01/19 05:48:47;;;;;;;;;;;;;;;16.39;46.48;102833.78;5064733;28;19936;-40
2022/01/19 05:51:13;;;;;;;;;;;;;;;16.39;47.41;102827.56;5066547;28;19925;-41
2022/01/19 05:53:39;;;;;;;;;;;;;;;16.39;46.65;102820.41;5064035;28;20557;-42
2022/01/19 05:56:06;;;;;;;;;;;;;;;16.40;46.84;102821.25;5067216;28;20107;-42
2022/01/19 05:58:33;;;;;;;;;;;;;;;16.40;46.56;102813.22;5069876;28;19932;-40
2022/01/19 06:00:59;;;;;;;;;;;;;;;16.40;46.46;102813.22;5066200;28;19938;-39
2022/01/19 06:03:29;;;;;;;;;;;;;;;16.40;47.13;102808.75;5065471;28;19924;-39
2022/01/19 06:05:56;;;;;;;;;;;;;;;16.39;47.51;102795.47;5066500;28;19924;-41
2022/01/19 06:10:54;;;;;;;;;;;;;;;16.40;46.45;102784.69;5065629;28;19925;-39
2022/01/19 06:13:21;;;;;;;;;;;;;;;16.40;46.60;102789.13;5066478;28;20099;-40
2022/01/19 06:15:48;;;;;;;;;;;;;;;16.41;47.11;102783.72;5063213;28;19928;-37
2022/01/19 06:18:15;;;;;;;;;;;;;;;16.41;47.19;102774.81;5065867;28;19928;-40
2022/01/19 06:20:42;;;;;;;;;;;;;;;16.41;46.82;102777.50;5061868;28;19932;-40
2022/01/19 06:23:09;;;;;;;;;;;;;;;16.41;47.10;102773.00;5067295;28;20016;-38
2022/01/19 06:25:35;;;;;;;;;;;;;;;16.39;47.11;102764.19;5067773;28;19939;-39
2022/01/19 06:28:02;;;;;;;;;;;;;;;16.40;46.99;102757.03;5061241;28;20227;-41
2022/01/19 06:30:28;;;;;;;;;;;;;;;16.39;46.27;102756.16;5062202;28;19924;-40
2022/01/19 06:32:55;;;;;;;;;;;;;;;16.39;46.64;102749.97;5067870;28;20312;-38
2022/01/19 06:35:21;;;;;;;;;;;;;;;16.38;46.62;102743.75;5062662;28;19928;-41
2022/01/19 06:37:48;;;;;;;;;;;;;;;16.38;47.47;102738.41;5064925;28;19931;-41
2022/01/19 06:40:16;;;;;;;;;;;;;;;16.37;46.52;102731.34;5059431;28;19925;-40
2022/01/19 06:42:43;;;;;;;;;;;;;;;16.37;47.33;102725.97;5069212;28;20028;-39
2022/01/19 06:45:10;;;;;;;;;;;;;;;16.36;46.20;102732.28;5063135;28;19971;-40
2022/01/19 06:47:37;;;;;;;;;;;;;;;16.36;47.07;102726.94;5060829;28;20613;-39
2022/01/19 06:50:04;;;;;;;;;;;;;;;16.36;47.11;102734.97;5065003;28;20368;-40
2022/01/19 06:52:31;;;;;;;;;;;;;;;16.36;47.48;102720.72;5064616;28;20012;-41
2022/01/19 06:54:57;;;;;;;;;;;;;;;16.36;46.87;102720.72;5070849;28;19943;-40
2022/01/19 06:57:23;;;;;;;;;;;;;;;16.35;46.62;102714.50;5068934;28;20014;-40
2022/01/19 06:59:51;;;;;;;;;;;;;;;16.34;46.59;102714.59;5059669;28;20497;-41
2022/01/19 07:02:18;;;;;;;;;;;;;;;16.32;47.02;102711.16;5063612;28;19929;-41
2022/01/19 07:04:49;;;;;;;;;;;;;;;16.31;47.13;102710.31;5065284;28;19971;-40
2022/01/19 07:07:18;;;;;;;;;;;;;;;16.32;47.29;102711.16;5055661;28;19972;-40
2022/01/19 07:09:46;;;;;;;;;;;;;;;16.30;46.29;102708.59;5063302;28;20201;-40
2022/01/19 07:12:12;;;;;;;;;;;;;;;16.29;47.45;102699.69;5067950;28;20253;-41
2022/01/19 07:14:39;;;;;;;;;;;;;;;16.27;47.06;102693.56;5059361;28;19924;-40
2022/01/19 07:17:05;;;;;;;;;;;;;;;16.26;46.22;102691.00;5064498;28;19929;-40
2022/01/19 07:19:32;;;;;;;;;;;;;;;16.26;46.51;102691.88;5063584;28;19933;-40
2022/01/19 07:21:58;;;;;;;;;;;;;;;16.26;46.36;102707.91;5064977;28;19928;-41
2022/01/19 07:24:25;;;;;;;;;;;;;;;16.25;47.21;102702.69;5062664;28;19925;-41
2022/01/19 07:26:51;;;;;;;;;;;;;;;16.24;46.54;102696.47;5064065;28;19925;-39
2022/01/19 07:29:18;;;;;;;;;;;;;;;16.24;47.50;102700.94;5064490;28;19934;-40
2022/01/19 07:31:44;;;;;;;;;;;;;;;16.23;46.87;102702.75;5060660;28;19928;-41
2022/01/19 07:34:12;;;;;;;;;;;;;;;16.23;47.07;102705.44;5063628;28;20033;-41
2022/01/19 07:36:38;;;;;;;;;;;;;;;16.22;46.64;102693.00;5065772;28;19931;-40
2022/01/19 07:39:04;;;;;;;;;;;;;;;16.22;46.87;102695.69;5060909;28;19925;-38
2022/01/19 07:41:31;;;;;;;;;;;;;;;16.20;47.03;102692.25;5064119;28;20010;-40
2022/01/19 07:43:57;;;;;;;;;;;;;;;16.20;46.63;102686.91;5061533;28;19932;-40
2022/01/19 07:46:24;;;;;;;;;;;;;;;16.19;46.23;102693.19;5057310;28;20016;-40
2022/01/19 07:48:50;;;;;;;;;;;;;;;16.19;46.99;102684.31;5066024;28;19950;-41
2022/01/19 07:51:17;;;;;;;;;;;;;;;16.19;46.91;102690.53;5064388;28;19932;-44
2022/01/19 07:53:43;;;;;;;;;;;;;;;16.18;46.83;102688.81;5061927;28;19952;-39
2022/01/19 07:56:09;;;;;;;;;;;;;;;16.19;46.81;102685.16;5064551;28;19931;-40
2022/01/19 07:58:36;;;;;;;;;;;;;;;16.19;47.07;102682.50;5063628;28;19928;-40
2022/01/19 08:01:02;;;;;;;;;;;;;;;16.18;46.38;102672.75;5065408;28;20011;-40
2022/01/19 08:03:29;;;;;;;;;;;;;;;16.19;46.86;102670.94;5065362;28;19928;-40
2022/01/19 08:05:55;;;;;;;;;;;;;;;16.18;47.22;102670.09;5060802;28;19943;-40
2022/01/19 08:08:21;;;;;;;;;;;;;;;16.18;47.00;102664.72;5063307;28;19935;-41
2022/01/19 08:10:48;;;;;;;;;;;;;;;16.18;47.03;102666.56;5061443;28;19924;-41
2022/01/19 08:13:15;;;;;;;;;;;;;;;16.15;46.14;102656.03;5059051;28;20323;-39
2022/01/19 08:15:42;;;;;;;;;;;;;;;16.15;47.23;102642.66;5065023;28;20016;-40
2022/01/19 08:18:08;;;;;;;;;;;;;;;16.15;47.12;102646.19;5064768;28;19924;-40
2022/01/19 08:20:34;;;;;;;;;;;;;;;16.16;46.29;102649.72;5060351;28;20019;-41
2022/01/19 08:23:03;;;;;;;;;;;;;;;16.14;45.98;102652.50;5064968;28;19924;-41
2022/01/19 08:25:30;;;;;;;;;;;;;;;16.13;46.92;102642.78;5058995;28;19929;-40
2022/01/19 08:27:56;;;;;;;;;;;;;;;16.15;47.22;102637.31;5064147;28;20277;-40
2022/01/19 08:30:23;;;;;;;;;;;;;;;16.13;46.19;102634.75;5064071;28;20051;-41
2022/01/19 08:32:49;;;;;;;;;;;;;;;16.11;47.17;102642.00;5063417;28;19925;-41
2022/01/19 08:35:15;;;;;;;;;;;;;;;16.12;46.23;102629.47;5065574;28;20312;-40
2022/01/19 08:37:42;;;;;;;;;;;;;;;16.11;46.08;102625.94;5064950;28;20219;-40
2022/01/19 08:40:09;;;;;;;;;;;;;;;16.11;47.00;102628.63;5059670;28;20349;-40
2022/01/19 08:42:36;;;;;;;;;;;;;;;16.11;46.19;102635.78;5066392;28;20354;-41
2022/01/19 08:45:07;;;;;;;;;;;;;;;16.10;46.95;102626.91;5063743;28;19935;-40
2022/01/19 08:47:34;;;;;;;;;;;;;;;16.07;46.65;102629.78;5065074;28;20015;-40
2022/01/19 08:50:03;;;;;;;;;;;;;;;16.08;46.50;102625.28;5065713;28;19964;-37
2022/01/19 08:52:30;;;;;;;;;;;;;;;16.10;46.45;102626.06;5059321;28;20006;-41
2022/01/19 08:54:56;;;;;;;;;;;;;;;16.08;46.25;102626.16;5066347;28;20289;-41
2022/01/19 08:57:24;;;;;;;;;;;;;;;16.06;46.64;102612.00;5064720;28;19935;-41
2022/01/19 08:59:51;;;;;;;;;;;;;;;16.05;45.98;102607.63;5070585;28;19929;-41
2022/01/19 09:02:18;;;;;;;;;;;;;;;16.06;45.81;102604.00;5069230;28;19974;-41
2022/01/19 09:04:45;;;;;;;;;;;;;;;16.05;46.16;102599.59;5065043;28;20393;-41
2022/01/19 09:07:12;;;;;;;;;;;;;;;16.04;45.82;102585.38;5063545;28;19924;-41
2022/01/19 09:09:39;;;;;;;;;;;;;;;16.03;47.01;102585.47;5069914;28;20015;-41
2022/01/19 09:12:06;;;;;;;;;;;;;;;16.03;46.69;102588.97;5058939;28;19925;-41
2022/01/19 09:14:32;;;;;;;;;;;;;;;16.03;46.75;102583.63;5067157;28;20343;-40
2022/01/19 09:16:58;;;;;;;;;;;;;;;16.03;46.12;102577.44;5064354;28;20015;-40
2022/01/19 09:19:25;;;;;;;;;;;;;;;16.02;46.63;102570.38;5068030;28;19972;-39
2022/01/19 09:21:51;;;;;;;;;;;;;;;16.02;45.97;102570.38;5066099;28;20216;-41
2022/01/19 09:24:18;;;;;;;;;;;;;;;16.02;45.93;102570.38;5060674;28;20372;-41
2022/01/19 09:26:45;;;;;;;;;;;;;;;16.03;46.40;102564.06;5066732;28;19937;-41
2022/01/19 09:29:12;;;;;;;;;;;;;;;16.01;46.03;102560.63;5065181;28;20213;-41
2022/01/19 09:31:41;;;;;;;;;;;;;;;16.00;46.10;102546.41;5066680;28;19932;-40
2022/01/19 09:34:09;;;;;;;;;;;;;;;16.00;45.74;102541.06;5069659;28;20302;-41
2022/01/19 09:36:44;;;;;;;;;;;;;;;15.98;46.77;102531.41;5066744;28;20437;-40
2022/01/19 09:39:11;;;;;;;;;;;;;;;15.98;46.24;102534.09;5067832;28;19981;-37
2022/01/19 09:41:38;;;;;;;;;;;;;;;15.95;45.79;102532.44;5069823;28;19935;-40
2022/01/19 09:44:05;;;;;;;;;;;;;;;15.95;45.66;102531.59;5061961;28;19971;-40
2022/01/19 09:46:31;;;;;;;;;;;;;;;15.95;46.24;102536.94;5067079;28;19928;-40
2022/01/19 09:49:00;;;;;;;;;;;;;;;15.94;45.61;102532.56;5069969;28;20015;-39
2022/01/19 09:51:27;;;;;;;;;;;;;;;15.93;46.24;102528.19;5060051;28;19928;-41
2022/01/19 09:53:54;;;;;;;;;;;;;;;15.92;45.77;102526.44;5065442;28;19935;-39
2022/01/19 09:56:21;;;;;;;;;;;;;;;15.91;45.65;102525.59;5064991;28;19932;-40
2022/01/19 09:58:47;;;;;;;;;;;;;;;15.89;45.63;102524.84;5061099;28;19929;-40
2022/01/19 10:01:21;;;;;;;;;;;;;;;15.88;46.42;102519.56;5070213;28;19968;-40
2022/01/19 10:03:48;;;;;;;;;;;;;;;15.85;45.75;102525.16;5067459;28;20446;-39
2022/01/19 10:06:15;;;;;;;;;;;;;;;15.84;45.35;102521.63;5066707;28;20235;-40
2022/01/19 10:09:00;;;;;;;;;;;;;;;15.85;45.58;102526.00;5062964;28;20282;-40
2022/01/19 10:17:02;;;;;;;;;;;;;;;16.09;45.70;102534.25;5066086;28;20007;-39
2022/01/19 10:19:33;;;;;;;;;;;;;;;16.19;45.60;102529.16;5068124;28;19933;-41
2022/01/19 10:22:01;;;;;;;;;;;;;;;16.28;45.70;102536.56;5063557;28;19972;-43
2022/01/19 10:24:38;;;;;;;;;;;;;;;16.38;46.09;102532.34;5064796;28;20359;-40
2022/01/19 10:27:21;;;;;;;;;;;;;;;16.50;45.64;102528.00;5064195;28;19933;-41
2022/01/19 10:29:52;;;;;;;;;;;;;;;16.60;44.66;102512.16;5065060;28;19928;-41
2022/01/19 10:32:23;;;;;;;;;;;;;;;16.69;45.26;102511.56;5065454;28;19924;-41
2022/01/19 10:34:50;;;;;;;;;;;;;;;16.79;44.88;102504.63;5064363;28;20400;-41
2022/01/19 10:37:23;;;;;;;;;;;;;;;16.87;45.38;102502.28;5061773;28;19928;-40
2022/01/19 10:39:51;;;;;;;;;;;;;;;16.95;44.86;102494.56;5063358;28;19925;-41
2022/01/19 10:42:20;;;;;;;;;;;;;;;17.03;44.66;102489.53;5061629;28;19939;-40
2022/01/19 10:44:48;;;;;;;;;;;;;;;17.12;43.96;102489.88;5064859;28;20790;-39
2022/01/19 10:47:46;;;;;;;;;;;;;;;17.19;44.59;102475.94;5062501;28;20312;-40
2022/01/19 10:50:22;;;;;;;;;;;;;;;17.26;44.08;102481.72;5062286;28;20247;-39
2022/01/19 10:52:49;;;;;;;;;;;;;;;17.35;44.35;102482.88;5068932;28;20016;-41
2022/01/19 10:55:18;;;;;;;;;;;;;;;17.41;44.38;102482.47;5065067;28;19939;-40
2022/01/19 10:57:45;;;;;;;;;;;;;;;17.47;44.26;102473.97;5063287;28;19951;-40
2022/01/19 11:00:16;;;;;;;;;;;;;;;17.51;44.19;102465.59;5065887;28;19983;-42
2022/01/19 11:02:43;;;;;;;;;;;;;;;17.55;43.81;102452.81;5061742;28;20259;-41
2022/01/19 11:05:10;;;;;;;;;;;;;;;17.61;43.87;102443.47;5060954;28;19933;-42
2022/01/19 11:07:37;;;;;;;;;;;;;;;17.65;43.89;102431.59;5066460;28;20690;-41
2022/01/19 11:10:18;;;;;;;;;;;;;;;17.69;43.93;102423.19;5064596;28;20389;-41
2022/01/19 11:12:47;;;;;;;;;;;;;;;17.74;43.55;102414.81;5062957;28;19933;-40
2022/01/19 11:15:15;;;;;;;;;;;;;;;17.78;43.80;102426.19;5055433;28;19925;-42
2022/01/19 11:17:42;;;;;;;;;;;;;;;17.82;43.67;102409.75;5064711;28;19934;-40
2022/01/19 11:20:11;;;;;;;;;;;;;;;17.86;43.86;102402.34;5066416;28;19928;-40
2022/01/19 11:22:50;;;;;;;;;;;;;;;17.89;43.51;102391.38;5063485;28;19968;-42
2022/01/19 11:25:20;;;;;;;;;;;;;;;17.92;43.64;102397.34;5062873;28;19964;-40
2022/01/19 11:28:06;;;;;;;;;;;;;;;17.96;43.25;102395.31;5064894;28;19925;-38
2022/01/19 11:30:33;;;;;;;;;;;;;;;17.99;43.52;102384.34;5069946;28;19931;-38
2022/01/19 11:33:09;;;;;;;;;;;;;;;18.02;43.34;102386.81;5062906;28;19964;-36
2022/01/19 11:35:36;;;;;;;;;;;;;;;18.05;43.09;102378.53;5062550;28;19924;-40
2022/01/19 11:38:21;;;;;;;;;;;;;;;18.09;43.02;102381.81;5065373;28;19925;-42
2022/01/19 11:40:48;;;;;;;;;;;;;;;18.12;42.92;102366.34;5064186;28;19936;-39
2022/01/19 11:43:19;;;;;;;;;;;;;;;18.16;43.14;102375.00;5062792;28;20026;-40
2022/01/19 11:45:45;;;;;;;;;;;;;;;18.18;43.04;102367.72;5063736;28;19935;-38
2022/01/19 11:48:20;;;;;;;;;;;;;;;18.19;42.96;102348.81;5061726;28;19931;-37
2022/01/19 11:50:47;;;;;;;;;;;;;;;18.22;43.24;102347.72;5064979;28;20007;-38
2022/01/19 11:53:13;;;;;;;;;;;;;;;18.24;42.92;102349.28;5061994;28;20226;-36
2022/01/19 11:55:41;;;;;;;;;;;;;;;18.28;43.17;102346.38;5065203;28;19925;-38
2022/01/19 11:58:21;;;;;;;;;;;;;;;18.29;42.75;102346.28;5067844;28;20027;-38
2022/01/19 12:00:48;;;;;;;;;;;;;;;18.33;42.97;102344.19;5061260;28;19972;-36
2022/01/19 12:03:38;;;;;;;;;;;;;;;18.35;43.13;102328.84;5062057;28;19928;-40
2022/01/19 12:06:31;;;;;;;;;;;;;;;18.38;43.23;102318.72;5060551;28;19967;-38
2022/01/19 12:08:58;;;;;;;;;;;;;;;18.41;43.18;102323.84;5062321;28;20019;-39
2022/01/19 12:11:28;;;;;;;;;;;;;;;18.43;42.88;102299.56;5059424;28;19997;-38
2022/01/19 12:14:00;;;;;;;;;;;;;;;18.45;42.83;102293.09;5060004;28;19932;-37
2022/01/19 12:19:07;;;;;;;;;;;;;;;18.49;42.61;102296.38;5061962;28;19924;-39
2022/01/19 12:21:33;;;;;;;;;;;;;;;18.49;42.62;102291.88;5061768;28;19975;-40
2022/01/19 12:24:25;;;;;;;;;;;;;;;18.52;42.84;102288.09;5062170;28;19930;-38
2022/01/19 12:27:02;;;;;;;;;;;;;;;18.55;42.75;102287.00;5066441;28;19935;-37
2022/01/19 12:29:36;;;;;;;;;;;;;;;18.56;42.60;102288.69;5062528;28;20334;-37
2022/01/19 12:32:08;;;;;;;;;;;;;;;18.58;42.76;102271.50;5064292;28;20237;-36
2022/01/19 12:34:41;;;;;;;;;;;;;;;18.60;42.84;102260.63;5062054;28;19935;-38
2022/01/19 12:37:07;;;;;;;;;;;;;;;18.61;42.45;102265.84;5069575;28;20328;-38
2022/01/19 12:39:35;;;;;;;;;;;;;;;18.62;42.43;102275.66;5067716;28;19929;-38
2022/01/19 12:42:04;;;;;;;;;;;;;;;18.63;42.61;102263.91;5064125;28;19935;-39
2022/01/19 12:44:49;;;;;;;;;;;;;;;18.66;42.80;102260.16;5068534;28;20354;-37
2022/01/19 12:47:28;;;;;;;;;;;;;;;18.66;42.41;102262.84;5063018;28;19934;-39
2022/01/19 12:49:54;;;;;;;;;;;;;;;18.67;42.33;102257.31;5061647;28;20365;-37
2022/01/19 12:52:22;;;;;;;;;;;;;;;18.66;42.54;102247.56;5068621;28;19924;-39
2022/01/19 12:54:49;;;;;;;;;;;;;;;18.67;42.61;102245.72;5065466;28;19995;-37
2022/01/19 12:57:16;;;;;;;;;;;;;;;18.66;42.26;102236.84;5065773;28;20018;-37
2022/01/19 12:59:44;;;;;;;;;;;;;;;18.64;42.90;102227.19;5062307;28;20619;-37
2022/01/19 13:02:14;;;;;;;;;;;;;;;18.61;42.83;102214.00;5063697;28;19932;-37
2022/01/19 13:04:41;;;;;;;;;;;;;;;18.58;42.76;102212.44;5067003;28;19933;-39
2022/01/19 13:07:23;;;;;;;;;;;;;;;18.56;42.38;102205.47;5063702;28;19932;-37
2022/01/19 13:10:13;;;;;;;;;;;;;;;18.52;42.71;102196.78;5058129;28;19935;-37
2022/01/19 13:12:48;;;;;;;;;;;;;;;18.47;42.77;102197.16;5067134;28;19931;-37
2022/01/19 13:15:15;;;;;;;;;;;;;;;18.41;42.72;102204.84;5065552;28;19964;-36
2022/01/19 13:17:41;;;;;;;;;;;;;;;18.35;42.73;102197.31;5062763;28;20066;-36
2022/01/19 13:20:09;;;;;;;;;;;;;;;18.30;42.88;102183.41;5063801;28;19925;-41
2022/01/19 13:22:49;;;;;;;;;;;;;;;18.23;42.99;102174.97;5062968;28;20008;-41
2022/01/19 13:25:17;;;;;;;;;;;;;;;18.15;43.29;102182.78;5063124;28;20010;-41
2022/01/19 13:27:45;;;;;;;;;;;;;;;18.10;43.15;102179.63;5064548;28;19966;-40
2022/01/19 13:30:16;;;;;;;;;;;;;;;18.04;43.25;102169.38;5064557;28;19950;-41
2022/01/19 13:32:42;;;;;;;;;;;;;;;17.97;43.52;102174.38;5064786;28;19943;-40
2022/01/19 13:35:10;;;;;;;;;;;;;;;17.92;43.39;102165.81;5063621;28;19933;-41
2022/01/19 13:37:45;;;;;;;;;;;;;;;17.90;43.60;102165.09;5062793;28;19979;-41
2022/01/19 13:40:18;;;;;;;;;;;;;;;17.91;43.51;102156.06;5065482;28;19931;-41
2022/01/19 13:42:47;;;;;;;;;;;;;;;17.93;43.65;102146.94;5064168;28;19929;-41
2022/01/19 13:45:25;;;;;;;;;;;;;;;17.97;43.22;102137.69;5062013;28;19933;-40
2022/01/19 13:47:56;;;;;;;;;;;;;;;18.02;43.44;102129.25;5065001;28;19951;-41
2022/01/19 13:50:23;;;;;;;;;;;;;;;18.07;43.50;102123.53;5062889;28;21121;-41
2022/01/19 13:52:49;;;;;;;;;;;;;;;18.13;43.44;102125.69;5065907;28;19935;-40
2022/01/19 13:55:17;;;;;;;;;;;;;;;18.18;43.35;102119.00;5062309;28;19929;-39
2022/01/19 13:57:43;;;;;;;;;;;;;;;18.24;43.68;102125.69;5063677;28;20579;-36
2022/01/19 14:00:12;;;;;;;;;;;;;;;18.29;43.54;102125.31;5064039;28;20446;-37
2022/01/19 14:02:38;;;;;;;;;;;;;;;18.34;43.13;102125.81;5064414;28;20039;-37
2022/01/19 14:05:42;;;;;;;;;;;;;;;18.39;43.01;102112.88;5063672;28;19933;-36
2022/01/19 14:08:08;;;;;;;;;;;;;;;18.43;42.95;102119.69;5063800;28;19928;-36
2022/01/19 14:10:42;;;;;;;;;;;;;;;18.46;43.42;102114.09;5061051;28;20024;-39
2022/01/19 14:13:28;;;;;;;;;;;;;;;18.49;43.35;102113.81;5065328;28;19932;-36
2022/01/19 14:16:13;;;;;;;;;;;;;;;18.50;43.18;102116.38;5064125;28;19986;-36
2022/01/19 14:18:40;;;;;;;;;;;;;;;18.50;42.99;102107.47;5059693;28;19929;-37
2022/01/19 14:21:07;;;;;;;;;;;;;;;18.50;42.96;102104.78;5060072;28;20340;-37